Portada
METAR-TAF:

METAR-TAF

Aeroports :

Aeroport de Soyo

Soyo, Angola

latitud: 6-8-28S, longitud: 12-22-19E, altitud: 5 m

Observació

L'informe es va fer fa 10 hores i 3 minuts, a les 14:00 UTC
Vent 12 kt del Oest
Temperatura
Pressió
Visibilitat: 5000 m
Escasses núvols a una alçada de 1300 ft
Núvols disperses a una alçada de 4000 ft
fum

METAR: FNSO 291400Z 27012KT 5000 FU FEW013 SCT040 ///// Q////

Hora: 01:03 (00:03 UTC)

Pronòstic

L'informe es va fer fa 1 hora i 3 minuts, a les 23:00 UTC
Pronòstic vàlid del 30 a les 00 UTC al 30 a les 12 UTC
Vent 3 kt amb direcció variable
Visibilitat 10 km o més
Escasses núvols a una alçada de 1800 ft
Cel ennuvolat a una alçada de 2500 ft
Probabilitat 30% :
Temporalment
l' 30 a les 04 UTC al 30 a les 08 UTC
Vent 5 kt del Sud
Visibilitat: 5000 m
Núvols disperses a una alçada de 1800 ft
boirina

TAF: FNSO 292300Z 3000/3012 VRB03KT 9999 FEW018 BKN025 PROB30 TEMPO 3004/3008 18005KT 5000 BR SCT018

Observacions i pronòstics meteorològics de més de 4000 aeroports (METAR i TAF).

Les estacions disponibles són els punts grocs i vermells al mapa.

Posi el ratolí al punt desitjat per veure el nom de l'estació.

Feu clic per veure les observacions i els pronòstics meteorològics.

Per canviar el mapa: feu clic els botons verds amb una creu de color negre per apropar; al botó verd amb un guió per allunyar la imatge; o en les fletxes verdes per a mapes adjacents.


METAR-TAF: